createdAt,value
2023-03-12T00:03:42.221Z,4.10
2023-03-12T00:08:44.845Z,3.83
2023-03-12T00:13:51.562Z,3.90
2023-03-12T00:18:54.942Z,4.05
2023-03-12T00:23:57.134Z,3.80
2023-03-12T00:28:59.216Z,4.10
2023-03-12T00:34:02.403Z,3.92
2023-03-12T00:39:04.527Z,3.95
2023-03-12T00:44:06.744Z,4.10
2023-03-12T00:49:09.002Z,4.30
2023-03-12T00:54:11.102Z,4.18
2023-03-12T00:59:14.476Z,4.32
2023-03-12T01:04:17.731Z,4.70
2023-03-12T01:09:19.844Z,4.22
2023-03-12T01:14:22.146Z,4.18
2023-03-12T01:19:24.522Z,3.78
2023-03-12T01:24:26.548Z,4.63
2023-03-12T01:29:28.557Z,4.53
2023-03-12T01:34:31.693Z,4.78
2023-03-12T01:39:33.801Z,4.55
2023-03-12T01:44:57.934Z,4.85
2023-03-12T01:50:01.333Z,5.22
2023-03-12T01:55:09.364Z,4.90
2023-03-12T02:00:19.136Z,4.53
2023-03-12T02:05:45.010Z,5.25
2023-03-12T02:10:47.512Z,5.40
2023-03-12T02:15:50.422Z,5.25
2023-03-12T02:21:02.486Z,5.10
2023-03-12T02:26:06.507Z,4.90
2023-03-12T02:31:14.743Z,4.97
2023-03-12T02:36:17.006Z,5.10
2023-03-12T02:41:26.603Z,4.72
2023-03-12T02:46:32.501Z,4.80
2023-03-12T02:51:34.984Z,5.20
2023-03-12T02:56:37.880Z,4.90
2023-03-12T03:01:41.600Z,5.32
2023-03-12T03:06:44.497Z,4.97
2023-03-12T03:11:47.382Z,5.20
2023-03-12T03:16:50.471Z,4.90
2023-03-12T03:21:52.764Z,5.22
2023-03-12T03:26:55.403Z,5.18
2023-03-12T03:31:57.748Z,5.22
2023-03-12T03:36:59.864Z,4.75
2023-03-12T03:42:02.187Z,5.53
2023-03-12T03:47:07.552Z,5.38
2023-03-12T03:52:09.760Z,5.40
2023-03-12T03:57:12.271Z,5.70
2023-03-12T04:02:15.014Z,5.10
2023-03-12T04:07:17.992Z,5.93
2023-03-12T04:12:20.562Z,5.75
2023-03-12T04:17:22.717Z,5.57
2023-03-12T04:22:25.198Z,5.55
2023-03-12T04:27:27.722Z,5.65
2023-03-12T04:32:29.891Z,6.10
2023-03-12T04:37:34.011Z,6.07
2023-03-12T04:42:37.670Z,5.82
2023-03-12T04:47:39.805Z,6.32
2023-03-12T04:52:42.553Z,6.70
2023-03-12T04:57:44.732Z,6.75
2023-03-12T05:02:46.963Z,6.65
2023-03-12T05:07:49.207Z,6.45
2023-03-12T05:12:51.716Z,6.68
2023-03-12T05:17:55.630Z,7.00
2023-03-12T05:22:58.129Z,6.78
2023-03-12T05:28:00.577Z,7.10
2023-03-12T05:33:03.388Z,7.03
2023-03-12T05:38:06.925Z,7.50
2023-03-12T05:43:09.194Z,7.50
2023-03-12T05:48:11.710Z,7.97
2023-03-12T05:53:13.897Z,8.23
2023-03-12T05:58:17.625Z,8.63
2023-03-12T06:03:20.126Z,9.00
2023-03-12T06:08:23.871Z,8.40
2023-03-12T06:13:28.003Z,8.95
2023-03-12T06:18:33.468Z,8.35
2023-03-12T06:23:37.935Z,8.20
2023-03-12T06:28:41.022Z,8.63
2023-03-12T06:33:43.662Z,8.30
2023-03-12T06:38:45.665Z,7.57
2023-03-12T06:43:48.012Z,7.97
2023-03-12T06:48:50.304Z,7.90
2023-03-12T06:53:52.575Z,7.72
2023-03-12T06:58:54.820Z,8.70
2023-03-12T07:03:56.870Z,8.73
2023-03-12T07:08:59.278Z,7.82
2023-03-12T07:14:01.837Z,7.85
2023-03-12T07:19:04.262Z,8.57
2023-03-12T07:24:08.215Z,8.23
2023-03-12T07:29:10.731Z,8.68
2023-03-12T07:34:13.669Z,9.35
2023-03-12T07:39:15.825Z,9.57
2023-03-12T07:44:17.960Z,9.40
2023-03-12T07:49:20.519Z,9.35
2023-03-12T07:54:25.723Z,10.95
2023-03-12T07:59:27.991Z,10.82
2023-03-12T08:04:30.449Z,11.20
2023-03-12T08:09:33.293Z,11.82
2023-03-12T08:14:36.175Z,12.65
2023-03-12T08:19:38.620Z,12.43
2023-03-12T08:24:40.915Z,13.05
2023-03-12T08:29:42.980Z,12.60
2023-03-12T08:34:45.053Z,13.57
2023-03-12T08:39:47.058Z,15.43
2023-03-12T08:44:49.390Z,16.85
2023-03-12T08:49:51.790Z,18.75
2023-03-12T08:54:54.045Z,20.98
2023-03-12T08:59:56.260Z,24.08
2023-03-12T09:04:58.461Z,25.15
2023-03-12T09:10:00.749Z,29.85
2023-03-12T09:15:04.727Z,28.17
2023-03-12T09:20:09.410Z,29.77
2023-03-12T09:25:12.319Z,30.13
2023-03-12T09:30:17.243Z,27.48
2023-03-12T09:35:19.430Z,30.45
2023-03-12T09:40:25.624Z,27.00
2023-03-12T09:45:31.918Z,26.30
2023-03-12T09:50:43.472Z,23.20
2023-03-12T09:55:49.006Z,23.67
2023-03-12T10:00:58.333Z,22.55
2023-03-12T10:06:22.040Z,20.55
2023-03-12T10:11:59.566Z,21.65
2023-03-12T10:17:23.480Z,19.38
2023-03-12T10:22:47.145Z,15.85
2023-03-12T10:27:49.946Z,15.88
2023-03-12T10:32:57.590Z,15.32
2023-03-12T10:38:02.195Z,14.15
2023-03-12T10:43:07.022Z,13.45
2023-03-12T10:48:17.548Z,13.60
2023-03-12T10:53:32.023Z,12.93
2023-03-12T10:58:36.152Z,11.77
2023-03-12T11:03:38.645Z,11.05
2023-03-12T11:08:41.500Z,10.07
2023-03-12T11:13:43.671Z,7.90
2023-03-12T11:18:59.874Z,8.20
2023-03-12T11:24:07.217Z,9.15
2023-03-12T11:29:31.353Z,8.40
2023-03-12T11:34:36.874Z,7.70
2023-03-12T11:40:11.356Z,6.40
2023-03-12T11:45:38.052Z,5.88
2023-03-12T11:50:52.027Z,5.40
2023-03-12T11:56:26.228Z,5.00
2023-03-12T12:01:47.225Z,5.53
2023-03-12T12:07:04.615Z,4.47
2023-03-12T12:12:29.921Z,4.93
2023-03-12T12:17:52.434Z,4.03
2023-03-12T12:23:28.677Z,4.38
2023-03-12T12:28:45.557Z,4.70
2023-03-12T12:33:56.369Z,4.78
2023-03-12T12:39:09.894Z,5.20
2023-03-12T12:44:16.214Z,5.68
2023-03-12T12:49:25.892Z,5.10
2023-03-12T12:54:35.809Z,4.45
2023-03-12T12:59:43.441Z,5.35
2023-03-12T13:04:46.727Z,4.93
2023-03-12T13:09:54.422Z,4.13
2023-03-12T13:14:58.824Z,4.72
2023-03-12T13:20:11.336Z,4.80
2023-03-12T13:25:30.705Z,5.35
2023-03-12T13:30:32.733Z,5.05
2023-03-12T13:35:39.756Z,4.55
2023-03-12T13:40:51.080Z,4.50
2023-03-12T13:45:55.964Z,4.55
2023-03-12T13:51:02.313Z,5.03
2023-03-12T13:56:09.604Z,4.95
2023-03-12T14:01:17.099Z,5.20
2023-03-12T14:06:22.253Z,5.45
2023-03-12T14:11:41.820Z,5.60
2023-03-12T14:16:46.717Z,4.45
2023-03-12T14:21:50.716Z,5.13
2023-03-12T14:26:54.905Z,4.72
2023-03-12T14:32:04.533Z,4.38
2023-03-12T14:37:18.073Z,4.95
2023-03-12T14:42:38.273Z,5.72
2023-03-12T14:47:42.733Z,6.07
2023-03-12T14:52:45.224Z,4.78
2023-03-12T14:57:48.202Z,5.15
2023-03-12T15:02:53.262Z,5.55
2023-03-12T15:08:01.765Z,5.25
2023-03-12T15:13:05.229Z,5.88
2023-03-12T15:18:13.161Z,5.20
2023-03-12T15:23:17.379Z,5.30
2023-03-12T15:28:21.247Z,4.18
2023-03-12T15:33:26.572Z,5.05
2023-03-12T15:38:31.244Z,5.50
2023-03-12T15:43:33.522Z,4.97
2023-03-12T15:48:40.088Z,5.07
2023-03-12T15:53:42.334Z,6.63
2023-03-12T15:58:45.712Z,6.28
2023-03-12T16:03:47.934Z,5.97
2023-03-12T16:08:55.811Z,5.65
2023-03-12T16:14:17.625Z,4.45
2023-03-12T16:19:22.463Z,5.05
2023-03-12T16:24:24.600Z,5.57
2023-03-12T16:29:32.435Z,5.43
2023-03-12T16:34:34.481Z,4.78
2023-03-12T16:39:36.669Z,5.22
2023-03-12T16:44:40.817Z,4.97
2023-03-12T16:49:44.075Z,5.25
2023-03-12T16:54:48.689Z,4.85
2023-03-12T16:59:50.991Z,4.43
2023-03-12T17:04:53.289Z,5.93
2023-03-12T17:09:55.467Z,6.05
2023-03-12T17:14:59.459Z,5.75
2023-03-12T17:20:01.640Z,6.05
2023-03-12T17:25:05.138Z,5.78
2023-03-12T17:30:08.000Z,5.97
2023-03-12T17:35:10.648Z,7.25
2023-03-12T17:40:13.097Z,5.68
2023-03-12T17:45:15.499Z,5.93
2023-03-12T17:50:17.908Z,6.00
2023-03-12T17:55:19.937Z,6.18
2023-03-12T18:00:23.090Z,4.65
2023-03-12T18:05:25.335Z,5.82
2023-03-12T18:10:27.487Z,5.97
2023-03-12T18:15:29.474Z,6.78
2023-03-12T18:20:38.601Z,5.85
2023-03-12T18:25:41.557Z,5.10
2023-03-12T18:30:47.370Z,4.93
2023-03-12T18:35:49.490Z,6.38
2023-03-12T18:40:51.588Z,6.57
2023-03-12T18:45:53.660Z,5.93
2023-03-12T18:50:55.768Z,6.90
2023-03-12T18:55:58.891Z,5.53
2023-03-12T19:01:01.750Z,5.22
2023-03-12T19:06:11.886Z,5.50
2023-03-12T19:11:16.065Z,5.93
2023-03-12T19:16:21.896Z,6.40
2023-03-12T19:21:24.331Z,6.20
2023-03-12T19:26:26.447Z,5.43
2023-03-12T19:31:28.667Z,5.03
2023-03-12T19:36:30.735Z,5.35
2023-03-12T19:41:34.717Z,5.10
2023-03-12T19:46:36.810Z,4.90
2023-03-12T19:51:40.391Z,5.50
2023-03-12T19:56:42.544Z,5.53
2023-03-12T20:01:44.702Z,6.00
2023-03-12T20:06:47.318Z,5.40
2023-03-12T20:11:49.421Z,5.60
2023-03-12T20:16:51.612Z,5.43
2023-03-12T20:21:55.009Z,6.45
2023-03-12T20:26:57.365Z,6.25
2023-03-12T20:31:59.684Z,6.35
2023-03-12T20:37:01.881Z,6.82
2023-03-12T20:42:04.090Z,6.53
2023-03-12T20:47:06.098Z,6.00
2023-03-12T20:52:08.165Z,6.78
2023-03-12T20:57:10.199Z,6.22
2023-03-12T21:02:13.989Z,6.15
2023-03-12T21:07:16.046Z,8.52
2023-03-12T21:12:18.045Z,7.45
2023-03-12T21:17:20.078Z,5.80
2023-03-12T21:22:22.062Z,6.45
2023-03-12T21:27:24.308Z,5.95
2023-03-12T21:32:26.878Z,6.25
2023-03-12T21:37:28.940Z,5.38
2023-03-12T21:42:32.945Z,6.20
2023-03-12T21:47:38.315Z,5.35
2023-03-12T21:52:43.564Z,6.28
2023-03-12T21:57:45.858Z,5.68
2023-03-12T22:02:47.955Z,5.95
2023-03-12T22:07:50.079Z,5.35
2023-03-12T22:12:53.298Z,5.90
2023-03-12T22:17:55.384Z,4.97
2023-03-12T22:22:57.677Z,6.18
2023-03-12T22:27:59.690Z,6.70
2023-03-12T22:33:01.727Z,6.40
2023-03-12T22:38:03.953Z,5.43
2023-03-12T22:43:05.993Z,5.03
2023-03-12T22:48:08.074Z,6.00
2023-03-12T22:53:10.104Z,5.03
2023-03-12T22:58:12.195Z,5.90
2023-03-12T23:03:14.292Z,4.45
2023-03-12T23:08:16.433Z,4.35
2023-03-12T23:13:18.457Z,4.82
2023-03-12T23:18:21.386Z,4.45
2023-03-12T23:23:23.446Z,4.95
2023-03-12T23:28:27.230Z,4.25
2023-03-12T23:33:30.338Z,5.20
2023-03-12T23:38:33.535Z,5.00
2023-03-12T23:43:36.479Z,5.40
2023-03-12T23:48:40.047Z,5.32
2023-03-12T23:53:44.077Z,5.10
2023-03-12T23:58:46.870Z,5.55
